Stacja Pogody
Warszawa Praga-Północ

Szerokość 52°15'43"N Długość 21°01'22"E Wysokość 110m n.p.m.


203 dzień roku.   Do końca pozostalo 162 dni.   Od wczoraj ubyło 3 min. i 19 sek. dnia.
Wschód Słońca 04:41 Górowanie Słońca 12:42 Zachód Słońca 20:43 rak
Data juliańska 2458322.494 Odległość Słońca 151976444 km Średn. kątowa Słońca 0,315°
Wschód Księżyca 16:06 Zachód Księżyca 00:54 Wiek Księżyca 10 dni Moon
Widoczność Księżyca 79,36% Odległość Księżyca 396912 km Średn. kątowa Księżyca 0,301°
Dzień krótszy od najdłuższego o: 00:45 Długość dnia 16:02 Imieniny Marii, Magdaleny



  Aktualizacja: 22-07-2018 23:49:56
TEMPERATURA
Aktualnie: 26.4°C →
Temperatura odczuwalna:32.3°C
Punkt rosy18.0°C
WIATR
Średnia prędkość: 0.0km/h →
Prędkość w podmuchach:1.1km/h
Przepływ w ciągu doby:0.0km
Kierunek wiatru:315°
CIŚNIENIE
Względne:1011.8hPa
Trend ciśnienia:powolny wzrost
WILGOTNOŚĆ
Wilgotność względna: 60% →
Podstawa chmur3281m
DESZCZ
W ostatniej godzinie: 0.0mm
Dzisiaj:0.0mm
W tym miesiącu:37.5mm
METAR
EPWA 222130Z 01007KT CAVOK 24/15 Q1011 NOSIG
Ostrzeżenia burzowe
Prognoza 12-to godzinna (prawdopodobieństwo 75%):   Dobra pogoda prognoza





a  a